Ana Sayfa
METAR-TAF:

METAR-TAF

Havaalanları :

Louisa County Airport (Freeman Field)

Louisa, Virginia, Amerika Birleşik Devletleri

Enlem: 38-00-35N, Boylam: 077-58-13W, yükseklik: 150 m

Güncel hava durumu gözlemi

Rapor saat 10:15 UTC de 23 dakika önce yapıldı.
Rüzgar kuzeybatıdan 5 kt
Sıcaklık 0°C
Nem 100%
Basınç 1027 hPa
Görüş mesafesi: 5.6 km
500 ft yükseklikte parçalı çok bulutlu
1100 ft yükseklikte çok bulutlu
hafif kar, Pus

METAR: KLKU 111015Z AUTO 32005KT 3 1/2SM -SN BR BKN005 OVC011 00/00 A3032 RMK AO2 T00031000

Saat: 05:38 (10:38 UTC)


TAF: eksik

4.000'den fazla havaalanı için hava durumu gözlemleri ve tahminleri (METAR ve TAF raporları).

Kullanılabilir istasyonlar harita üzerinde sarı ve kırmızı noktalarla gösterilir.

İstasyonun adını görmek için fareyi noktanın üzerinde gezdirin.

Sonrasında hava gözlem ve tahminlerini görmek için tıklayın.

Haritayı değiştirmek için: yaklaştırmak için siyah artı işaretli yeşil düğmeye ve uzaklaştırmak için de eksi işaretli düğmeye hızla tıklayın; bitişik haritalar için yeşil okları kullanın.


METAR-TAF: